MSC Geneva — CQFQ — position and weather

sailwx.info

Track history (hours):
 
Tides and Currents Weather Stations Pressure Air Temp Water Temp Dewpoint Dewpoint Depression Visibility Wind Speed Wind Dir Waves Ship Positions

MSC Geneva

Last reported at 2018-Feb-20 13:28 UTC. Time now 2018-Feb-20 13:35 UTC.
Position N 51°58' E 001°18'.

Length 283 m; draft 10 m.

Type: Ship (hazmat cat A). MMSI: 255805618.

Date/timePositionNaut miles runAvg speedWind from/ knotsBaromVisibWave heightAir tempDewpointWater temp
2018-Feb-20 13:28N 51°58' E 001°18'0 0.0
2018-Feb-20 12:58N 51°58' E 001°18'0 0.0
2018-Feb-20 12:28N 51°58' E 001°18'0 0.0
2018-Feb-20 11:58N 51°58' E 001°18'0 0.0
2018-Feb-20 11:30N 51°58' E 001°18'0 0.0
2018-Feb-20 11:00N 51°58' E 001°18'0 0.0
2018-Feb-20 10:30N 51°58' E 001°18'0 0.0
2018-Feb-20 10:00N 51°58' E 001°18'0 0.0
2018-Feb-20 09:29N 51°58' E 001°18'0 0.0
2018-Feb-20 08:59N 51°58' E 001°18'0 0.0
2018-Feb-20 08:29N 51°58' E 001°18'0 0.0
2018-Feb-20 07:59N 51°58' E 001°18'0 0.0
2018-Feb-20 07:29N 51°58' E 001°18'0 0.0
2018-Feb-20 06:58N 51°58' E 001°18'0 0.0
2018-Feb-20 06:28N 51°58' E 001°18'0 0.0
2018-Feb-20 05:58N 51°58' E 001°18'0 0.0
2018-Feb-20 05:28N 51°58' E 001°18'0 0.0
2018-Feb-20 05:00N 51°58' E 001°18'0 0.0
2018-Feb-20 04:30N 51°58' E 001°18'0 0.0
2018-Feb-20 04:00N 51°58' E 001°18'0 0.0
2018-Feb-20 03:30N 51°58' E 001°18'0 0.0
2018-Feb-20 03:00N 51°58' E 001°18'0 0.0
2018-Feb-20 02:29N 51°58' E 001°18'0 0.0
2018-Feb-20 01:59N 51°58' E 001°18'0 0.0
2018-Feb-20 01:29N 51°58' E 001°18'0 0.0
2018-Feb-20 00:59N 51°58' E 001°18'0 0.0
2018-Feb-20 00:29N 51°58' E 001°18'0 0.0
2018-Feb-19 23:58N 51°58' E 001°18'0 0.0
2018-Feb-19 23:28N 51°58' E 001°18'0 0.0
2018-Feb-19 22:58N 51°58' E 001°18'0 0.0
2018-Feb-19 22:28N 51°58' E 001°18'0 0.0
2018-Feb-19 22:00N 51°58' E 001°18'0 0.0
2018-Feb-19 21:30N 51°58' E 001°18'0 0.0
2018-Feb-19 21:00N 51°58' E 001°18'0 0.0
2018-Feb-19 20:30N 51°58' E 001°18'0 0.0
2018-Feb-19 20:00N 51°58' E 001°18'0 0.0
2018-Feb-19 19:29N 51°58' E 001°18'0 0.0
2018-Feb-19 18:59N 51°58' E 001°18'0 0.0
2018-Feb-19 18:29N 51°58' E 001°18'0 0.0
2018-Feb-19 17:59N 51°58' E 001°18'0 0.0
2018-Feb-19 17:29N 51°58' E 001°18'0 0.1
2018-Feb-19 16:58N 51°58' E 001°18'1 2.8
2018-Feb-19 16:30N 51°56' E 001°19'5 9.3
2018-Feb-19 16:01N 51°56' E 001°26'510.3
2018-Feb-19 15:30N 51°54' E 001°34'5 9.1
2018-Feb-19 15:01N 51°52' E 001°41'1 1.6
2018-Feb-19 14:30N 51°52' E 001°42'3 6.8
2018-Feb-19 14:01N 51°51' E 001°47'4 7.9
2018-Feb-19 13:30N 51°48' E 001°49'4 8.8
2018-Feb-19 13:01N 51°43' E 001°49'612.4
2018-Feb-19 12:31N 51°37' E 001°49'713.9
2018-Feb-19 12:00N 51°30' E 001°52'918.4
2018-Feb-19 11:30N 51°23' E 002°02'1019.3
2018-Feb-19 11:00N 51°16' E 001°52'918.7
2018-Feb-19 10:30N 51°09' E 001°43'918.4
2018-Feb-19 10:01N 51°02' E 001°34'918.6
2018-Feb-19 09:30N 50°54' E 001°26'918.8
2018-Feb-19 09:00N 50°45' E 001°22'1118.8
2018-Feb-19 08:25N 50°35' E 001°13'919.4
2018-Feb-19 07:59N 50°29' E 001°03'919.2
2018-Feb-19 07:29N 50°28' E 000°48'918.6
2018-Feb-19 07:00N 50°26' E 000°35'918.2
2018-Feb-19 06:30N 50°24' E 000°21'917.3
2018-Feb-19 06:01N 50°22' E 000°08'917.3
2018-Feb-19 05:30N 50°19' W 000°06'817.0
2018-Feb-19 05:00N 50°17' W 000°18'816.6
2018-Feb-19 04:30N 50°15' W 000°31'816.0
2018-Feb-19 04:00N 50°12' W 000°43'714.8
2018-Feb-19 03:30N 50°09' W 000°54'1214.9
2018-Feb-19 02:40N 50°07' W 001°12'315.4
2018-Feb-19 02:30N 50°07' W 001°16'815.7
2018-Feb-19 02:00N 50°04' W 001°28'816.3
2018-Feb-19 01:30N 50°02' W 001°40'917.0
2018-Feb-19 01:00N 50°00' W 001°53'917.9
2018-Feb-19 00:31N 49°58' W 002°07'918.6
2018-Feb-19 00:00N 49°56' W 002°21'918.8
2018-Feb-18 23:30N 49°54' W 002°35'918.8
2018-Feb-18 23:00N 49°51' W 002°49'918.8
2018-Feb-18 22:30N 49°47' W 003°02'918.6
2018-Feb-18 22:00N 49°43' W 003°15'8219.1
2018-Feb-18 17:41N 49°00' W 005°03'421.5
2018-Feb-18 17:30N 48°58' W 005°09'1121.6
2018-Feb-18 17:00N 48°53' W 005°23'1121.6
2018-Feb-18 16:30N 48°47' W 005°36'1121.1
2018-Feb-18 15:59N 48°38' W 005°45'1421.2
2018-Feb-18 15:19N 48°25' W 005°55'1220.8
2018-Feb-18 14:46N 48°15' W 006°03'620.6
2018-Feb-18 14:28N 48°09' W 006°08'1120.6
2018-Feb-18 13:55N 47°59' W 006°15'920.3
2018-Feb-18 13:27N 47°51' W 006°22'1019.9
2018-Feb-18 12:57N 47°42' W 006°28'52419.1
2018-Feb-17 09:29N 39°19' W 009°54'919.1
2018-Feb-17 09:00N 39°10' W 009°54'919.1
2018-Feb-17 08:30N 39°01' W 009°53'1019.3
2018-Feb-17 08:00N 38°51' W 009°52'1019.2
2018-Feb-17 07:30N 38°42' W 009°50'1019.3
2018-Feb-17 07:01N 38°32' W 009°48'1019.1
2018-Feb-17 06:30N 38°23' W 009°43'1019.4
2018-Feb-17 06:00N 38°14' W 009°40'1019.5
2018-Feb-17 05:30N 38°05' W 009°37'1019.3
2018-Feb-17 05:00N 37°55' W 009°35'1019.3
2018-Feb-17 04:31N 37°46' W 009°32'1019.3
2018-Feb-17 04:00N 37°36' W 009°29'7916.9
2018-Feb-16 23:21N 36°35' W 008°26'35718.5
2018-Feb-16 04:03N 37°15' W 001°03'121.1
2018-Feb-16 03:59N 37°16' W 001°02'1021.1
2018-Feb-16 03:30N 37°23' W 000°51'1019.6
2018-Feb-16 02:59N 37°29' W 000°41'919.8
2018-Feb-16 02:30N 37°36' W 000°33'1019.8
2018-Feb-16 02:00N 37°44' W 000°27'1019.7
2018-Feb-16 01:31N 37°53' W 000°20'1020.0
2018-Feb-16 01:01N 38°01' W 000°14'1220.4
2018-Feb-16 00:24N 38°11' W 000°05'7216.4
2018-Feb-15 19:59N 39°24' W 000°13'511.4
2018-Feb-15 19:30N 39°26' W 000°19'0 0.7
2018-Feb-15 19:00N 39°26' W 000°20'0 0.0
2018-Feb-15 18:29N 39°26' W 000°20'0 0.0
2018-Feb-15 17:59N 39°26' W 000°20'0 0.0
2018-Feb-15 17:29N 39°26' W 000°20'0 0.0
2018-Feb-15 16:59N 39°26' W 000°20'0 0.0
2018-Feb-15 16:29N 39°26' W 000°20'0 0.0
2018-Feb-15 15:58N 39°26' W 000°20'0 0.0
2018-Feb-15 15:28N 39°26' W 000°20'0 0.0
2018-Feb-15 14:58N 39°26' W 000°20'0 0.0
2018-Feb-15 14:28N 39°26' W 000°20'0 0.0
2018-Feb-15 13:58N 39°26' W 000°20'0 0.0
2018-Feb-15 13:27N 39°26' W 000°20'0 0.0
2018-Feb-15 13:00N 39°26' W 000°20'0 0.0
2018-Feb-15 12:30N 39°26' W 000°20'0 0.0
2018-Feb-15 12:00N 39°26' W 000°20'0 0.0
2018-Feb-15 11:30N 39°26' W 000°20'0 0.0
2018-Feb-15 10:59N 39°26' W 000°20'0 0.0
2018-Feb-15 10:29N 39°26' W 000°20'0 0.0
2018-Feb-15 09:59N 39°26' W 000°20'0 0.0
2018-Feb-15 09:29N 39°26' W 000°20'0 0.0
2018-Feb-15 08:58N 39°26' W 000°20'0 0.0
2018-Feb-15 08:28N 39°26' W 000°20'0 0.0
2018-Feb-15 07:58N 39°26' W 000°20'0 0.0
2018-Feb-15 07:28N 39°26' W 000°20'0 0.0
2018-Feb-15 07:01N 39°26' W 000°20'0 0.0
2018-Feb-15 06:21N 39°26' W 000°20'0 0.0
2018-Feb-15 06:00N 39°26' W 000°20'0 0.0
2018-Feb-15 05:30N 39°26' W 000°20'0 0.0
2018-Feb-15 04:57N 39°26' W 000°20'0 0.0
2018-Feb-15 04:20N 39°26' W 000°20'0 0.0
2018-Feb-15 03:59N 39°26' W 000°20'0 0.0
2018-Feb-15 03:29N 39°26' W 000°20'0 0.0
2018-Feb-15 02:59N 39°26' W 000°20'0 0.0
2018-Feb-15 02:29N 39°26' W 000°20'0 0.0
2018-Feb-15 01:58N 39°26' W 000°20'0 0.0
2018-Feb-15 01:28N 39°26' W 000°20'0 0.0
2018-Feb-15 00:58N 39°26' W 000°20'0 0.0
2018-Feb-15 00:28N 39°26' W 000°20'0 0.0
2018-Feb-14 23:57N 39°26' W 000°20'0 0.0
2018-Feb-14 23:30N 39°26' W 000°20'1 2.9
2018-Feb-14 23:00N 39°26' W 000°18'4 8.9
2018-Feb-14 22:30N 39°25' W 000°12'12516.0
2018-Feb-14 14:41N 39°05' E 002°27'315.9
2018-Feb-14 14:30N 39°04' E 002°31'815.9
2018-Feb-14 14:00N 39°03' E 002°41'816.2
2018-Feb-14 13:30N 39°01' E 002°51'816.0
2018-Feb-14 13:00N 38°59' E 003°01'53416.2
2018-Feb-13 04:00N 36°36' E 013°53'815.6
2018-Feb-13 03:30N 36°32' E 014°01'815.6
2018-Feb-13 03:00N 36°30' E 014°10'815.7
2018-Feb-13 02:30N 36°26' E 014°19'815.5
2018-Feb-13 02:00N 36°23' E 014°28'815.9
2018-Feb-13 01:30N 36°19' E 014°37'816.3
2018-Feb-13 01:00N 36°15' E 014°46'  
2018-Feb-10 18:31N 33°15' E 032°37'018.4
2018-Feb-10 18:30N 33°15' E 032°38'1019.7
2018-Feb-10 18:00N 33°13' E 032°49'1020.1
2018-Feb-10 17:29N 33°11' E 033°01'1020.2
2018-Feb-10 17:01N 33°10' E 033°13'1020.0
2018-Feb-10 16:31N 33°08' E 033°24'1019.7
2018-Feb-10 16:01N 33°07' E 033°36'1019.1
2018-Feb-10 15:30N 33°05' E 033°47'919.0
2018-Feb-10 15:01N 33°03' E 033°58'918.9
2018-Feb-10 14:30N 33°01' E 034°10'1019.2
2018-Feb-10 14:00N 32°59' E 034°21'1019.2
2018-Feb-10 13:31N 32°57' E 034°32'  
Track history (hours):
 
Tides and Currents Weather Stations Pressure Air Temp Water Temp Dewpoint Dewpoint Depression Visibility Wind Speed Wind Dir Waves Ship Positions

MSC Geneva

Last reported at 2018-Feb-20 13:28 UTC. Time now 2018-Feb-20 13:35 UTC.
Position N 51°58' E 001°18'.

Length 283 m; draft 10 m.

Type: Ship (hazmat cat A). MMSI: 255805618.

Date/timePositionNaut miles runAvg speedWind from/ knotsBaromVisibWave heightAir tempDewpointWater temp
2018-Feb-20 13:28N 51°58' E 001°18'0 0.0
2018-Feb-20 12:58N 51°58' E 001°18'0 0.0
2018-Feb-20 12:28N 51°58' E 001°18'0 0.0
2018-Feb-20 11:58N 51°58' E 001°18'0 0.0
2018-Feb-20 11:30N 51°58' E 001°18'0 0.0
2018-Feb-20 11:00N 51°58' E 001°18'0 0.0
2018-Feb-20 10:30N 51°58' E 001°18'0 0.0
2018-Feb-20 10:00N 51°58' E 001°18'0 0.0
2018-Feb-20 09:29N 51°58' E 001°18'0 0.0
2018-Feb-20 08:59N 51°58' E 001°18'0 0.0
2018-Feb-20 08:29N 51°58' E 001°18'0 0.0
2018-Feb-20 07:59N 51°58' E 001°18'0 0.0
2018-Feb-20 07:29N 51°58' E 001°18'0 0.0
2018-Feb-20 06:58N 51°58' E 001°18'0 0.0
2018-Feb-20 06:28N 51°58' E 001°18'0 0.0
2018-Feb-20 05:58N 51°58' E 001°18'0 0.0
2018-Feb-20 05:28N 51°58' E 001°18'0 0.0
2018-Feb-20 05:00N 51°58' E 001°18'0 0.0
2018-Feb-20 04:30N 51°58' E 001°18'0 0.0
2018-Feb-20 04:00N 51°58' E 001°18'0 0.0
2018-Feb-20 03:30N 51°58' E 001°18'0 0.0
2018-Feb-20 03:00N 51°58' E 001°18'0 0.0
2018-Feb-20 02:29N 51°58' E 001°18'0 0.0
2018-Feb-20 01:59N 51°58' E 001°18'0 0.0
2018-Feb-20 01:29N 51°58' E 001°18'0 0.0
2018-Feb-20 00:59N 51°58' E 001°18'0 0.0
2018-Feb-20 00:29N 51°58' E 001°18'0 0.0
2018-Feb-19 23:58N 51°58' E 001°18'0 0.0
2018-Feb-19 23:28N 51°58' E 001°18'0 0.0
2018-Feb-19 22:58N 51°58' E 001°18'0 0.0
2018-Feb-19 22:28N 51°58' E 001°18'0 0.0
2018-Feb-19 22:00N 51°58' E 001°18'0 0.0
2018-Feb-19 21:30N 51°58' E 001°18'0 0.0
2018-Feb-19 21:00N 51°58' E 001°18'0 0.0
2018-Feb-19 20:30N 51°58' E 001°18'0 0.0
2018-Feb-19 20:00N 51°58' E 001°18'0 0.0
2018-Feb-19 19:29N 51°58' E 001°18'0 0.0
2018-Feb-19 18:59N 51°58' E 001°18'0 0.0
2018-Feb-19 18:29N 51°58' E 001°18'0 0.0
2018-Feb-19 17:59N 51°58' E 001°18'0 0.0
2018-Feb-19 17:29N 51°58' E 001°18'0 0.1
2018-Feb-19 16:58N 51°58' E 001°18'1 2.8
2018-Feb-19 16:30N 51°56' E 001°19'5 9.3
2018-Feb-19 16:01N 51°56' E 001°26'510.3
2018-Feb-19 15:30N 51°54' E 001°34'5 9.1
2018-Feb-19 15:01N 51°52' E 001°41'1 1.6
2018-Feb-19 14:30N 51°52' E 001°42'3 6.8
2018-Feb-19 14:01N 51°51' E 001°47'4 7.9
2018-Feb-19 13:30N 51°48' E 001°49'4 8.8
2018-Feb-19 13:01N 51°43' E 001°49'612.4
2018-Feb-19 12:31N 51°37' E 001°49'713.9
2018-Feb-19 12:00N 51°30' E 001°52'918.4
2018-Feb-19 11:30N 51°23' E 002°02'1019.3
2018-Feb-19 11:00N 51°16' E 001°52'918.7
2018-Feb-19 10:30N 51°09' E 001°43'918.4
2018-Feb-19 10:01N 51°02' E 001°34'918.6
2018-Feb-19 09:30N 50°54' E 001°26'918.8
2018-Feb-19 09:00N 50°45' E 001°22'1118.8
2018-Feb-19 08:25N 50°35' E 001°13'919.4
2018-Feb-19 07:59N 50°29' E 001°03'919.2
2018-Feb-19 07:29N 50°28' E 000°48'918.6
2018-Feb-19 07:00N 50°26' E 000°35'918.2
2018-Feb-19 06:30N 50°24' E 000°21'917.3
2018-Feb-19 06:01N 50°22' E 000°08'917.3
2018-Feb-19 05:30N 50°19' W 000°06'817.0
2018-Feb-19 05:00N 50°17' W 000°18'816.6
2018-Feb-19 04:30N 50°15' W 000°31'816.0
2018-Feb-19 04:00N 50°12' W 000°43'714.8
2018-Feb-19 03:30N 50°09' W 000°54'1214.9
2018-Feb-19 02:40N 50°07' W 001°12'315.4
2018-Feb-19 02:30N 50°07' W 001°16'815.7
2018-Feb-19 02:00N 50°04' W 001°28'816.3
2018-Feb-19 01:30N 50°02' W 001°40'917.0
2018-Feb-19 01:00N 50°00' W 001°53'917.9
2018-Feb-19 00:31N 49°58' W 002°07'918.6
2018-Feb-19 00:00N 49°56' W 002°21'918.8
2018-Feb-18 23:30N 49°54' W 002°35'918.8
2018-Feb-18 23:00N 49°51' W 002°49'918.8
2018-Feb-18 22:30N 49°47' W 003°02'918.6
2018-Feb-18 22:00N 49°43' W 003°15'8219.1
2018-Feb-18 17:41N 49°00' W 005°03'421.5
2018-Feb-18 17:30N 48°58' W 005°09'1121.6
2018-Feb-18 17:00N 48°53' W 005°23'1121.6
2018-Feb-18 16:30N 48°47' W 005°36'1121.1
2018-Feb-18 15:59N 48°38' W 005°45'1421.2
2018-Feb-18 15:19N 48°25' W 005°55'1220.8
2018-Feb-18 14:46N 48°15' W 006°03'620.6
2018-Feb-18 14:28N 48°09' W 006°08'1120.6
2018-Feb-18 13:55N 47°59' W 006°15'920.3
2018-Feb-18 13:27N 47°51' W 006°22'1019.9
2018-Feb-18 12:57N 47°42' W 006°28'52419.1
2018-Feb-17 09:29N 39°19' W 009°54'919.1
2018-Feb-17 09:00N 39°10' W 009°54'919.1
2018-Feb-17 08:30N 39°01' W 009°53'1019.3
2018-Feb-17 08:00N 38°51' W 009°52'1019.2
2018-Feb-17 07:30N 38°42' W 009°50'1019.3
2018-Feb-17 07:01N 38°32' W 009°48'1019.1
2018-Feb-17 06:30N 38°23' W 009°43'1019.4
2018-Feb-17 06:00N 38°14' W 009°40'1019.5
2018-Feb-17 05:30N 38°05' W 009°37'1019.3
2018-Feb-17 05:00N 37°55' W 009°35'1019.3
2018-Feb-17 04:31N 37°46' W 009°32'1019.3
2018-Feb-17 04:00N 37°36' W 009°29'7916.9
2018-Feb-16 23:21N 36°35' W 008°26'35718.5
2018-Feb-16 04:03N 37°15' W 001°03'121.1
2018-Feb-16 03:59N 37°16' W 001°02'1021.1
2018-Feb-16 03:30N 37°23' W 000°51'1019.6
2018-Feb-16 02:59N 37°29' W 000°41'919.8
2018-Feb-16 02:30N 37°36' W 000°33'1019.8
2018-Feb-16 02:00N 37°44' W 000°27'1019.7
2018-Feb-16 01:31N 37°53' W 000°20'1020.0
2018-Feb-16 01:01N 38°01' W 000°14'1220.4
2018-Feb-16 00:24N 38°11' W 000°05'7216.4
2018-Feb-15 19:59N 39°24' W 000°13'511.4
2018-Feb-15 19:30N 39°26' W 000°19'0 0.7
2018-Feb-15 19:00N 39°26' W 000°20'0 0.0
2018-Feb-15 18:29N 39°26' W 000°20'0 0.0
2018-Feb-15 17:59N 39°26' W 000°20'0 0.0
2018-Feb-15 17:29N 39°26' W 000°20'0 0.0
2018-Feb-15 16:59N 39°26' W 000°20'0 0.0
2018-Feb-15 16:29N 39°26' W 000°20'0 0.0
2018-Feb-15 15:58N 39°26' W 000°20'0 0.0
2018-Feb-15 15:28N 39°26' W 000°20'0 0.0
2018-Feb-15 14:58N 39°26' W 000°20'0 0.0
2018-Feb-15 14:28N 39°26' W 000°20'0 0.0
2018-Feb-15 13:58N 39°26' W 000°20'0 0.0
2018-Feb-15 13:27N 39°26' W 000°20'0 0.0
2018-Feb-15 13:00N 39°26' W 000°20'0 0.0
2018-Feb-15 12:30N 39°26' W 000°20'0 0.0
2018-Feb-15 12:00N 39°26' W 000°20'0 0.0
2018-Feb-15 11:30N 39°26' W 000°20'0 0.0
2018-Feb-15 10:59N 39°26' W 000°20'0 0.0
2018-Feb-15 10:29N 39°26' W 000°20'0 0.0
2018-Feb-15 09:59N 39°26' W 000°20'0 0.0
2018-Feb-15 09:29N 39°26' W 000°20'0 0.0
2018-Feb-15 08:58N 39°26' W 000°20'0 0.0
2018-Feb-15 08:28N 39°26' W 000°20'0 0.0
2018-Feb-15 07:58N 39°26' W 000°20'0 0.0
2018-Feb-15 07:28N 39°26' W 000°20'0 0.0
2018-Feb-15 07:01N 39°26' W 000°20'0 0.0
2018-Feb-15 06:21N 39°26' W 000°20'0 0.0
2018-Feb-15 06:00N 39°26' W 000°20'0 0.0
2018-Feb-15 05:30N 39°26' W 000°20'0 0.0
2018-Feb-15 04:57N 39°26' W 000°20'0 0.0
2018-Feb-15 04:20N 39°26' W 000°20'0 0.0
2018-Feb-15 03:59N 39°26' W 000°20'0 0.0
2018-Feb-15 03:29N 39°26' W 000°20'0 0.0
2018-Feb-15 02:59N 39°26' W 000°20'0 0.0
2018-Feb-15 02:29N 39°26' W 000°20'0 0.0
2018-Feb-15 01:58N 39°26' W 000°20'0 0.0
2018-Feb-15 01:28N 39°26' W 000°20'0 0.0
2018-Feb-15 00:58N 39°26' W 000°20'0 0.0
2018-Feb-15 00:28N 39°26' W 000°20'0 0.0
2018-Feb-14 23:57N 39°26' W 000°20'0 0.0
2018-Feb-14 23:30N 39°26' W 000°20'1 2.9
2018-Feb-14 23:00N 39°26' W 000°18'4 8.9
2018-Feb-14 22:30N 39°25' W 000°12'12516.0
2018-Feb-14 14:41N 39°05' E 002°27'315.9
2018-Feb-14 14:30N 39°04' E 002°31'815.9
2018-Feb-14 14:00N 39°03' E 002°41'816.2
2018-Feb-14 13:30N 39°01' E 002°51'816.0
2018-Feb-14 13:00N 38°59' E 003°01'53416.2
2018-Feb-13 04:00N 36°36' E 013°53'815.6
2018-Feb-13 03:30N 36°32' E 014°01'815.6
2018-Feb-13 03:00N 36°30' E 014°10'815.7
2018-Feb-13 02:30N 36°26' E 014°19'815.5
2018-Feb-13 02:00N 36°23' E 014°28'815.9
2018-Feb-13 01:30N 36°19' E 014°37'816.3
2018-Feb-13 01:00N 36°15' E 014°46'  
2018-Feb-10 18:31N 33°15' E 032°37'018.4
2018-Feb-10 18:30N 33°15' E 032°38'1019.7
2018-Feb-10 18:00N 33°13' E 032°49'1020.1
2018-Feb-10 17:29N 33°11' E 033°01'1020.2
2018-Feb-10 17:01N 33°10' E 033°13'1020.0
2018-Feb-10 16:31N 33°08' E 033°24'1019.7
2018-Feb-10 16:01N 33°07' E 033°36'1019.1
2018-Feb-10 15:30N 33°05' E 033°47'919.0
2018-Feb-10 15:01N 33°03' E 033°58'918.9
2018-Feb-10 14:30N 33°01' E 034°10'1019.2
2018-Feb-10 14:00N 32°59' E 034°21'1019.2
2018-Feb-10 13:31N 32°57' E 034°32'  

Dump ship's entire track history